createdAt,value
2018-09-20T00:00:02.560Z,64.910889
2018-09-20T00:01:02.719Z,64.709473
2018-09-20T00:02:02.730Z,64.508057
2018-09-20T00:03:02.690Z,64.709473
2018-09-20T00:04:02.872Z,65.142822
2018-09-20T00:05:02.823Z,65.338135
2018-09-20T00:06:02.885Z,64.709473
2018-09-20T00:07:02.881Z,64.605713
2018-09-20T00:08:02.933Z,64.709473
2018-09-20T00:09:02.978Z,64.941406
2018-09-20T00:10:03.022Z,64.910889
2018-09-20T00:11:03.143Z,65.142822
2018-09-20T00:12:03.261Z,65.338135
2018-09-20T00:13:03.413Z,65.441895
2018-09-20T00:14:03.827Z,65.441895
2018-09-20T00:15:03.602Z,65.039062
2018-09-20T00:16:04.267Z,64.605713
2018-09-20T00:17:03.866Z,64.208984
2018-09-20T00:18:04.062Z,63.977051
2018-09-20T00:19:04.062Z,64.105225
2018-09-20T00:20:04.085Z,64.306641
2018-09-20T00:21:04.183Z,64.605713
2018-09-20T00:22:04.328Z,64.807129
2018-09-20T00:23:04.350Z,65.142822
2018-09-20T00:24:04.497Z,65.039062
2018-09-20T00:25:04.641Z,65.240479
2018-09-20T00:26:04.667Z,64.910889
2018-09-20T00:27:04.737Z,64.508057
2018-09-20T00:28:04.878Z,64.404297
2018-09-20T00:29:04.940Z,63.977051
2018-09-20T00:30:04.943Z,63.775635
2018-09-20T00:31:05.092Z,63.775635
2018-09-20T00:32:05.196Z,63.775635
2018-09-20T00:33:05.384Z,64.074707
2018-09-20T00:34:05.326Z,63.977051
2018-09-20T00:35:05.360Z,63.977051
2018-09-20T00:36:05.365Z,63.977051
2018-09-20T00:37:06.406Z,64.306641
2018-09-20T00:38:05.533Z,64.306641
2018-09-20T00:39:05.576Z,64.404297
2018-09-20T00:40:05.650Z,64.306641
2018-09-20T00:41:05.614Z,64.208984
2018-09-20T00:42:05.679Z,64.508057
2018-09-20T00:43:05.804Z,64.404297
2018-09-20T00:44:06.045Z,64.807129
2018-09-20T00:45:06.028Z,64.807129
2018-09-20T00:46:06.140Z,64.910889
2018-09-20T00:47:06.152Z,64.910889
2018-09-20T00:48:06.420Z,64.910889
2018-09-20T00:49:06.380Z,64.605713
2018-09-20T00:50:06.362Z,65.039062
2018-09-20T00:51:06.432Z,65.338135
2018-09-20T00:52:06.489Z,65.441895
2018-09-20T00:53:06.579Z,65.441895
2018-09-20T00:54:06.558Z,65.539551
2018-09-20T00:55:06.844Z,65.441895
2018-09-20T00:56:06.836Z,65.539551
2018-09-20T00:57:06.968Z,65.472412
2018-09-20T00:58:07.049Z,65.338135
2018-09-20T00:59:07.155Z,65.441895
2018-09-20T01:00:07.208Z,65.240479
2018-09-20T01:01:07.301Z,64.941406
2018-09-20T01:02:07.325Z,65.039062
2018-09-20T01:03:07.568Z,65.039062
2018-09-20T01:04:07.523Z,65.17334
2018-09-20T01:05:07.660Z,65.240479
2018-09-20T01:06:07.774Z,65.368652
2018-09-20T01:07:07.788Z,65.368652
2018-09-20T01:08:07.904Z,65.270996
2018-09-20T01:09:08.236Z,65.270996
2018-09-20T01:10:08.036Z,65.472412
2018-09-20T01:11:08.115Z,66.003418
2018-09-20T01:12:08.254Z,65.905762
2018-09-20T01:13:08.364Z,65.673828
2018-09-20T01:14:08.345Z,65.673828
2018-09-20T01:15:08.471Z,65.570068
2018-09-20T01:16:08.633Z,66.003418
2018-09-20T01:17:08.665Z,66.107178
2018-09-20T01:18:08.685Z,66.107178
2018-09-20T01:19:08.748Z,66.107178
2018-09-20T01:20:08.925Z,65.905762
2018-09-20T01:21:08.963Z,65.802002
2018-09-20T01:22:08.992Z,65.673828
2018-09-20T01:23:09.003Z,65.270996
2018-09-20T01:24:09.129Z,65.270996
2018-09-20T01:25:09.121Z,65.17334
2018-09-20T01:26:09.289Z,65.06958
2018-09-20T01:27:10.406Z,64.868164
2018-09-20T01:28:09.387Z,64.971924
2018-09-20T01:29:09.471Z,65.368652
2018-09-20T01:30:09.509Z,64.971924
2018-09-20T01:31:09.762Z,65.405273
2018-09-20T01:32:09.627Z,65.17334
2018-09-20T01:33:09.659Z,65.405273
2018-09-20T01:34:10.790Z,65.50293
2018-09-20T01:35:09.911Z,65.50293
2018-09-20T01:36:10.056Z,65.270996
2018-09-20T01:37:10.168Z,65.301514
2018-09-20T01:38:10.300Z,65.802002
2018-09-20T01:39:10.349Z,65.905762
2018-09-20T01:40:10.349Z,65.50293
2018-09-20T01:41:10.426Z,65.50293
2018-09-20T01:42:10.583Z,65.905762
2018-09-20T01:43:10.588Z,65.936279
2018-09-20T01:44:10.711Z,66.339111
2018-09-20T01:45:10.856Z,66.235352
2018-09-20T01:46:11.067Z,66.235352
2018-09-20T01:47:10.998Z,66.339111
2018-09-20T01:48:11.077Z,66.339111
2018-09-20T01:49:11.047Z,66.436768
2018-09-20T01:50:11.063Z,66.638184
2018-09-20T01:51:11.141Z,66.339111
2018-09-20T01:52:11.192Z,66.033936
2018-09-20T01:53:11.395Z,65.704346
2018-09-20T01:54:11.344Z,65.301514
2018-09-20T01:55:11.374Z,65.533447
2018-09-20T01:56:11.510Z,65.838623
2018-09-20T01:57:11.557Z,66.235352
2018-09-20T01:58:11.528Z,66.235352
2018-09-20T01:59:11.600Z,66.235352
2018-09-20T02:00:11.642Z,66.033936
2018-09-20T02:01:11.779Z,66.033936
2018-09-20T02:02:12.003Z,65.936279
2018-09-20T02:03:11.868Z,65.838623
2018-09-20T02:04:11.859Z,65.838623
2018-09-20T02:05:11.903Z,66.033936
2018-09-20T02:06:11.962Z,66.369629
2018-09-20T02:07:12.116Z,66.339111
2018-09-20T02:08:12.071Z,66.235352
2018-09-20T02:09:12.226Z,65.838623
2018-09-20T02:10:12.231Z,65.734863
2018-09-20T02:11:12.213Z,66.571045
2018-09-20T02:12:12.361Z,66.668701
2018-09-20T02:13:13.339Z,66.772461
2018-09-20T02:14:12.436Z,66.973877
2018-09-20T02:15:12.567Z,67.071533
2018-09-20T02:16:12.704Z,67.30957
2018-09-20T02:17:12.818Z,67.30957
2018-09-20T02:18:12.826Z,66.668701
2018-09-20T02:19:12.983Z,66.668701
2018-09-20T02:20:13.103Z,66.473389
2018-09-20T02:21:13.238Z,66.271973
2018-09-20T02:22:13.316Z,66.571045
2018-09-20T02:23:14.468Z,66.571045
2018-09-20T02:24:13.342Z,66.906738
2018-09-20T02:25:13.467Z,66.802979
2018-09-20T02:26:13.556Z,66.906738
2018-09-20T02:27:13.585Z,67.108154
2018-09-20T02:28:13.755Z,67.108154
2018-09-20T02:29:13.587Z,67.004395
2018-09-20T02:30:13.643Z,66.668701
2018-09-20T02:31:13.731Z,66.271973
2018-09-20T02:32:13.729Z,66.271973
2018-09-20T02:33:13.865Z,66.802979
2018-09-20T02:34:13.960Z,66.705322
2018-09-20T02:35:14.073Z,67.108154
2018-09-20T02:36:14.116Z,67.108154
2018-09-20T02:37:14.225Z,66.571045
2018-09-20T02:38:15.321Z,66.070557
2018-09-20T02:39:14.448Z,66.503906
2018-09-20T02:40:14.545Z,66.906738
2018-09-20T02:41:14.614Z,66.705322
2018-09-20T02:42:14.739Z,66.271973
2018-09-20T02:43:14.910Z,65.966797
2018-09-20T02:44:14.915Z,65.869141
2018-09-20T02:45:14.917Z,66.601562
2018-09-20T02:46:15.023Z,67.138672
2018-09-20T02:47:15.170Z,67.437744
2018-09-20T02:48:15.235Z,67.541504
2018-09-20T02:49:16.394Z,67.138672
2018-09-20T02:50:15.310Z,67.236328
2018-09-20T02:51:15.347Z,67.236328
2018-09-20T02:52:15.423Z,67.236328
2018-09-20T02:53:15.551Z,67.004395
2018-09-20T02:54:15.551Z,67.034912
2018-09-20T02:55:15.522Z,67.004395
2018-09-20T02:56:15.640Z,66.705322
2018-09-20T02:57:15.776Z,66.802979
2018-09-20T02:58:15.986Z,66.400146
2018-09-20T02:59:15.915Z,66.070557
2018-09-20T03:00:15.908Z,65.869141
2018-09-20T03:01:16.048Z,65.435791
2018-09-20T03:02:16.160Z,65.869141
2018-09-20T03:03:16.302Z,66.168213
2018-09-20T03:04:16.365Z,66.400146
2018-09-20T03:05:16.366Z,66.503906
2018-09-20T03:06:16.424Z,66.705322
2018-09-20T03:07:16.601Z,66.601562
2018-09-20T03:08:16.631Z,66.705322
2018-09-20T03:09:16.784Z,66.705322
2018-09-20T03:10:16.871Z,66.802979
2018-09-20T03:11:17.043Z,66.802979
2018-09-20T03:12:17.046Z,66.705322
2018-09-20T03:13:17.134Z,66.503906
2018-09-20T03:14:17.328Z,66.070557
2018-09-20T03:15:17.425Z,65.563965
2018-09-20T03:16:17.313Z,65.332031
2018-09-20T03:17:17.442Z,65.563965
2018-09-20T03:18:17.575Z,65.466309
2018-09-20T03:19:17.903Z,65.667725
2018-09-20T03:20:17.842Z,66.070557
2018-09-20T03:21:17.980Z,66.369629
2018-09-20T03:22:19.124Z,66.802979
2018-09-20T03:23:18.313Z,66.668701
2018-09-20T03:24:18.268Z,66.668701
2018-09-20T03:25:18.315Z,66.571045
2018-09-20T03:26:19.286Z,66.473389
2018-09-20T03:27:18.302Z,66.772461
2018-09-20T03:28:18.378Z,66.870117
2018-09-20T03:29:18.428Z,67.30957
2018-09-20T03:30:18.677Z,67.608643
2018-09-20T03:31:18.442Z,68.041992
2018-09-20T03:32:18.404Z,68.011475
2018-09-20T03:33:18.539Z,67.706299
2018-09-20T03:34:18.587Z,67.272949
2018-09-20T03:35:18.662Z,67.071533
2018-09-20T03:36:18.785Z,66.668701
2018-09-20T03:37:19.833Z,67.004395
2018-09-20T03:38:18.951Z,67.108154
2018-09-20T03:39:18.968Z,67.004395
2018-09-20T03:40:19.032Z,66.802979
2018-09-20T03:41:19.325Z,66.668701
2018-09-20T03:42:19.281Z,66.906738
2018-09-20T03:43:19.349Z,67.108154
2018-09-20T03:44:19.363Z,67.108154
2018-09-20T03:45:19.370Z,67.004395
2018-09-20T03:46:19.470Z,66.802979
2018-09-20T03:47:19.512Z,67.004395
2018-09-20T03:48:19.600Z,67.108154
2018-09-20T03:49:19.698Z,67.138672
2018-09-20T03:50:19.786Z,67.541504
2018-09-20T03:51:19.949Z,67.205811
2018-09-20T03:52:20.104Z,67.108154
2018-09-20T03:53:20.031Z,67.236328
2018-09-20T03:54:20.125Z,67.63916
2018-09-20T03:55:20.152Z,67.108154
2018-09-20T03:56:20.253Z,67.004395
2018-09-20T03:57:20.326Z,67.108154
2018-09-20T03:58:20.438Z,66.906738
2018-09-20T03:59:20.433Z,66.802979
2018-09-20T04:00:20.594Z,67.236328
2018-09-20T04:01:20.688Z,67.340088
2018-09-20T04:02:20.698Z,67.108154
2018-09-20T04:03:20.697Z,67.205811
2018-09-20T04:04:20.711Z,67.004395
2018-09-20T04:05:20.759Z,66.802979
2018-09-20T04:06:20.755Z,66.906738
2018-09-20T04:07:20.916Z,66.906738
2018-09-20T04:08:20.984Z,66.705322
2018-09-20T04:09:21.054Z,67.004395
2018-09-20T04:10:21.127Z,66.772461
2018-09-20T04:11:21.233Z,66.571045
2018-09-20T04:12:21.402Z,66.802979
2018-09-20T04:13:21.428Z,67.205811
2018-09-20T04:14:21.504Z,67.541504
2018-09-20T04:15:21.638Z,67.63916
2018-09-20T04:16:21.969Z,67.74292
2018-09-20T04:17:21.834Z,67.877197
2018-09-20T04:18:21.879Z,67.974854
2018-09-20T04:19:21.859Z,67.74292
2018-09-20T04:20:21.938Z,67.437744
2018-09-20T04:21:21.997Z,67.773438
2018-09-20T04:22:22.124Z,68.17627
2018-09-20T04:23:22.355Z,68.280029
2018-09-20T04:24:22.217Z,67.944336
2018-09-20T04:25:22.223Z,67.74292
2018-09-20T04:26:22.282Z,67.74292
2018-09-20T04:27:22.473Z,67.541504
2018-09-20T04:28:22.466Z,67.236328
2018-09-20T04:29:22.516Z,67.773438
2018-09-20T04:30:22.601Z,67.340088
2018-09-20T04:31:22.640Z,67.138672
2018-09-20T04:32:22.819Z,67.034912
2018-09-20T04:33:22.796Z,67.236328
2018-09-20T04:34:22.845Z,67.034912
2018-09-20T04:35:22.912Z,67.340088
2018-09-20T04:36:22.947Z,67.034912
2018-09-20T04:37:22.960Z,67.236328
2018-09-20T04:38:22.964Z,67.572021
2018-09-20T04:39:23.117Z,67.340088
2018-09-20T04:40:23.238Z,66.937256
2018-09-20T04:41:23.264Z,66.833496
2018-09-20T04:42:23.268Z,67.272949
2018-09-20T04:43:23.319Z,67.602539
2018-09-20T04:44:23.420Z,67.706299
2018-09-20T04:45:23.582Z,67.169189
2018-09-20T04:46:23.495Z,66.967773
2018-09-20T04:47:23.516Z,66.967773
2018-09-20T04:48:23.702Z,66.870117
2018-09-20T04:49:23.685Z,66.967773
2018-09-20T04:50:23.762Z,66.967773
2018-09-20T04:51:23.831Z,67.401123
2018-09-20T04:52:23.916Z,67.303467
2018-09-20T04:53:24.061Z,66.870117
2018-09-20T04:54:24.021Z,66.668701
2018-09-20T04:55:24.052Z,66.363525
2018-09-20T04:56:24.079Z,66.870117
2018-09-20T04:57:24.147Z,67.303467
2018-09-20T04:58:24.308Z,67.602539
2018-09-20T04:59:24.337Z,67.602539
2018-09-20T05:00:24.415Z,67.401123
2018-09-20T05:01:25.515Z,67.071533
2018-09-20T05:02:24.553Z,67.303467
2018-09-20T05:03:24.597Z,68.005371
2018-09-20T05:04:24.666Z,67.907715
2018-09-20T05:05:24.785Z,68.109131
2018-09-20T05:06:24.895Z,68.54248
2018-09-20T05:07:25.512Z,68.139648
2018-09-20T05:09:39.931Z,68.310547
2018-09-20T05:11:07.534Z,68.243408
2018-09-20T05:11:49.673Z,68.64624
2018-09-20T05:12:49.924Z,68.64624
2018-09-20T05:13:49.881Z,68.341064
2018-09-20T05:14:49.913Z,68.243408
2018-09-20T05:16:28.808Z,67.907715
2018-09-20T05:17:29.002Z,67.504883
2018-09-20T05:18:29.068Z,67.474365
2018-09-20T05:19:29.168Z,67.803955
2018-09-20T05:20:29.310Z,68.005371
2018-09-20T05:21:29.381Z,68.511963
2018-09-20T05:22:29.615Z,68.408203
2018-09-20T05:23:29.491Z,68.109131
2018-09-20T05:24:29.581Z,68.511963
2018-09-20T05:25:29.680Z,68.914795
2018-09-20T05:26:29.808Z,69.012451
2018-09-20T05:37:43.913Z,67.675781
2018-09-20T05:38:44.077Z,67.675781
2018-09-20T05:39:44.125Z,67.474365
2018-09-20T05:40:44.210Z,67.773438
2018-09-20T05:41:44.246Z,67.675781
2018-09-20T05:42:44.322Z,68.078613
2018-09-20T05:43:44.277Z,68.17627
2018-09-20T05:44:44.455Z,68.078613
2018-09-20T05:45:44.530Z,67.675781
2018-09-20T05:46:44.530Z,67.474365
2018-09-20T05:47:44.612Z,67.675781
2018-09-20T05:48:44.619Z,67.773438
2018-09-20T05:49:44.623Z,68.17627
2018-09-20T05:50:44.775Z,68.078613
2018-09-20T05:51:44.941Z,67.63916
2018-09-20T05:52:44.852Z,67.74292
2018-09-20T05:53:45.043Z,68.041992
2018-09-20T05:54:45.135Z,68.145752
2018-09-20T05:55:45.191Z,68.481445
2018-09-20T05:56:45.176Z,68.347168
2018-09-20T05:57:45.126Z,68.682861
2018-09-20T05:58:45.212Z,68.548584
2018-09-20T05:59:45.195Z,68.780518
2018-09-20T06:00:45.277Z,69.085693
2018-09-20T06:01:45.461Z,68.981934
2018-09-20T06:02:45.598Z,68.780518
2018-09-20T06:03:45.597Z,68.780518
2018-09-20T06:04:45.542Z,68.377686
2018-09-20T06:05:45.653Z,68.914795
2018-09-20T06:06:45.648Z,68.609619
2018-09-20T06:07:45.741Z,67.974854
2018-09-20T06:08:45.811Z,67.877197
2018-09-20T06:09:45.841Z,68.280029
2018-09-20T06:10:45.977Z,68.17627
2018-09-20T06:11:46.052Z,67.974854
2018-09-20T06:12:46.079Z,67.74292
2018-09-20T06:13:46.105Z,67.63916
2018-09-20T06:14:46.093Z,67.840576
2018-09-20T06:15:46.136Z,68.17627
2018-09-20T06:16:46.219Z,68.041992
2018-09-20T06:17:46.335Z,67.63916
2018-09-20T06:18:46.473Z,67.541504
2018-09-20T06:19:46.504Z,67.541504
2018-09-20T06:20:46.541Z,67.30957
2018-09-20T06:21:46.657Z,67.30957
2018-09-20T06:22:46.804Z,67.30957
2018-09-20T06:23:46.730Z,67.108154
2018-09-20T06:24:46.790Z,67.205811
2018-09-20T06:25:46.930Z,67.407227
2018-09-20T06:26:46.963Z,67.840576
2018-09-20T06:27:47.234Z,67.944336
2018-09-20T06:28:47.170Z,68.145752
2018-09-20T06:29:47.301Z,68.145752
2018-09-20T06:30:47.540Z,68.444824
2018-09-20T06:31:47.500Z,68.347168
2018-09-20T06:32:47.637Z,68.145752
2018-09-20T06:33:47.672Z,68.64624
2018-09-20T06:34:47.761Z,68.847656
2018-09-20T06:35:47.827Z,68.75
2018-09-20T06:36:47.852Z,68.310547
2018-09-20T06:37:47.985Z,68.615723
2018-09-20T06:38:47.966Z,68.817139
2018-09-20T06:39:48.058Z,68.713379
2018-09-20T06:40:48.230Z,68.817139
2018-09-20T06:41:48.229Z,68.817139
2018-09-20T06:42:48.225Z,68.511963
2018-09-20T06:43:48.342Z,68.511963
2018-09-20T06:44:48.495Z,68.511963
2018-09-20T06:45:49.195Z,68.615723
2018-09-20T06:46:48.634Z,68.481445
2018-09-20T06:47:48.631Z,68.481445
2018-09-20T06:48:48.779Z,68.585205
2018-09-20T06:49:48.788Z,68.585205
2018-09-20T06:50:48.872Z,68.481445
2018-09-20T06:51:48.963Z,68.481445
2018-09-20T06:52:49.215Z,68.780518
2018-09-20T06:53:49.178Z,68.981934
2018-09-20T06:54:49.297Z,68.884277
2018-09-20T06:55:49.305Z,68.682861
2018-09-20T06:56:49.442Z,68.548584
2018-09-20T06:57:49.436Z,68.652344
2018-09-20T06:58:49.473Z,68.548584
2018-09-20T06:59:49.638Z,68.85376
2018-09-20T07:00:49.645Z,69.152832
2018-09-20T07:01:49.720Z,68.85376
2018-09-20T07:02:49.846Z,68.85376
2018-09-20T07:03:49.933Z,68.75
2018-09-20T07:04:49.864Z,68.75
2018-09-20T07:05:50.125Z,69.055176
2018-09-20T07:06:49.990Z,69.250488
2018-09-20T07:07:50.128Z,69.250488
2018-09-20T07:08:50.178Z,69.152832
2018-09-20T07:09:50.162Z,69.152832
2018-09-20T07:10:50.247Z,69.152832
2018-09-20T07:11:50.407Z,69.250488
2018-09-20T07:12:50.601Z,68.920898
2018-09-20T07:13:50.679Z,68.817139
2018-09-20T07:14:50.643Z,68.920898
2018-09-20T07:15:50.756Z,69.018555
2018-09-20T07:16:50.983Z,68.920898
2018-09-20T07:17:50.993Z,68.920898
2018-09-20T07:18:51.020Z,69.32373
2018-09-20T07:19:51.134Z,69.32373
2018-09-20T07:20:51.408Z,69.32373
2018-09-20T07:21:51.330Z,68.988037
2018-09-20T07:22:51.465Z,68.884277
2018-09-20T07:23:51.447Z,68.786621
2018-09-20T07:24:51.679Z,68.786621
2018-09-20T07:25:52.754Z,68.585205
2018-09-20T07:26:51.884Z,68.585205
2018-09-20T07:27:51.856Z,68.249512
2018-09-20T07:28:52.020Z,67.852783
2018-09-20T07:29:52.148Z,68.048096
2018-09-20T07:30:52.193Z,68.249512
2018-09-20T07:31:52.320Z,68.151855
2018-09-20T07:32:52.529Z,68.017578
2018-09-20T07:33:52.633Z,68.249512
2018-09-20T07:34:52.702Z,67.950439
2018-09-20T07:35:52.857Z,68.151855
2018-09-20T07:36:52.852Z,68.249512
2018-09-20T07:37:52.821Z,67.950439
2018-09-20T07:38:52.900Z,67.651367
2018-09-20T07:39:53.042Z,67.816162
2018-09-20T07:40:53.199Z,67.919922
2018-09-20T07:41:54.302Z,67.919922
2018-09-20T07:42:53.226Z,67.718506
2018-09-20T07:43:53.413Z,67.51709
2018-09-20T07:44:53.256Z,67.419434
2018-09-20T07:45:54.594Z,67.785645
2018-09-20T07:46:53.431Z,67.785645
2018-09-20T07:47:53.750Z,67.785645
2018-09-20T07:48:53.612Z,67.687988
2018-09-20T07:49:53.616Z,67.687988
2018-09-20T07:50:53.783Z,68.487549
2018-09-20T07:51:53.774Z,68.585205
2018-09-20T07:52:54.990Z,68.786621
2018-09-20T07:53:54.068Z,68.95752
2018-09-20T07:54:54.207Z,69.555664
2018-09-20T07:55:54.170Z,69.354248
2018-09-20T07:56:54.155Z,68.95752
2018-09-20T07:57:54.275Z,68.756104
2018-09-20T07:58:54.270Z,68.023682
2018-09-20T07:59:54.358Z,67.218018
2018-09-20T08:00:54.436Z,67.218018
2018-09-20T08:01:54.558Z,67.321777
2018-09-20T08:02:54.550Z,67.120361
2018-09-20T08:03:54.735Z,66.918945
2018-09-20T08:04:54.795Z,66.918945
2018-09-20T08:05:54.915Z,66.821289
2018-09-20T08:06:54.908Z,67.022705
2018-09-20T08:07:55.086Z,67.755127
2018-09-20T08:08:55.046Z,67.321777
2018-09-20T08:09:55.207Z,67.321777
2018-09-20T08:10:55.324Z,67.419434
2018-09-20T08:11:55.575Z,67.022705
2018-09-20T08:12:55.605Z,66.717529
2018-09-20T08:13:55.551Z,66.619873
2018-09-20T08:14:55.586Z,66.217041
2018-09-20T08:15:55.624Z,66.619873
2018-09-20T08:16:55.706Z,66.418457
2018-09-20T08:17:55.794Z,66.717529
2018-09-20T08:18:55.844Z,67.022705
2018-09-20T08:19:55.885Z,66.516113
2018-09-20T08:20:55.847Z,66.717529
2018-09-20T08:21:55.875Z,67.022705
2018-09-20T08:22:55.926Z,67.254639
2018-09-20T08:23:56.023Z,67.651367
2018-09-20T08:24:56.036Z,67.419434
2018-09-20T08:25:56.193Z,67.651367
2018-09-20T08:26:56.348Z,67.449951
2018-09-20T08:27:56.361Z,67.449951
2018-09-20T08:28:56.508Z,67.321777
2018-09-20T08:29:56.545Z,67.321777
2018-09-20T08:30:56.504Z,67.523193
2018-09-20T08:31:56.566Z,67.718506
2018-09-20T08:32:56.683Z,67.791748
2018-09-20T08:33:57.068Z,67.987061
2018-09-20T08:34:56.895Z,67.987061
2018-09-20T08:35:56.923Z,68.389893
2018-09-20T08:36:57.079Z,67.889404
2018-09-20T08:37:57.145Z,68.188477
2018-09-20T08:38:57.160Z,68.688965
2018-09-20T08:39:57.185Z,68.255615
2018-09-20T08:40:57.342Z,67.858887
2018-09-20T08:41:57.446Z,67.156982
2018-09-20T08:42:57.500Z,67.29126
2018-09-20T08:43:57.565Z,67.791748
2018-09-20T08:44:57.715Z,67.755127
2018-09-20T08:45:57.859Z,67.889404
2018-09-20T08:46:57.850Z,67.791748
2018-09-20T08:47:57.910Z,67.687988
2018-09-20T08:48:58.129Z,67.29126
2018-09-20T08:49:58.068Z,67.590332
2018-09-20T08:50:58.181Z,67.889404
2018-09-20T08:51:58.231Z,67.889404
2018-09-20T08:52:58.301Z,67.590332
2018-09-20T08:53:58.260Z,67.053223
2018-09-20T08:54:58.256Z,67.388916
2018-09-20T08:55:58.507Z,67.089844
2018-09-20T08:56:58.629Z,67.156982
2018-09-20T08:57:58.627Z,67.456055
2018-09-20T08:58:58.688Z,67.858887
2018-09-20T08:59:58.860Z,67.657471
2018-09-20T09:00:58.881Z,67.358398
2018-09-20T09:01:58.924Z,67.254639
2018-09-20T09:02:59.024Z,67.657471
2018-09-20T09:03:59.254Z,67.755127
2018-09-20T09:04:59.231Z,68.157959
2018-09-20T09:05:59.415Z,67.456055
2018-09-20T09:06:59.413Z,68.359375
2018-09-20T09:07:59.415Z,68.457031
2018-09-20T09:08:59.452Z,68.157959
2018-09-20T09:09:59.480Z,68.255615
2018-09-20T09:10:59.697Z,68.95752
2018-09-20T09:11:59.759Z,68.859863
2018-09-20T09:12:59.859Z,68.359375
2018-09-20T09:13:59.915Z,69.091797
2018-09-20T09:15:00.043Z,69.158936
2018-09-20T09:16:00.230Z,69.158936
2018-09-20T09:17:00.276Z,69.32373
2018-09-20T09:18:00.341Z,68.823242
2018-09-20T09:19:00.369Z,68.688965
2018-09-20T09:20:00.390Z,67.993164
2018-09-20T09:21:00.716Z,68.389893
2018-09-20T09:22:00.692Z,68.389893
2018-09-20T09:23:00.846Z,67.889404
2018-09-20T09:24:00.857Z,68.426514
2018-09-20T09:25:01.101Z,68.859863
2018-09-20T09:26:01.115Z,68.725586
2018-09-20T09:27:01.153Z,68.52417
2018-09-20T09:28:01.143Z,68.127441
2018-09-20T09:29:01.172Z,67.724609
2018-09-20T09:30:01.289Z,67.889404
2018-09-20T09:31:01.299Z,67.858887
2018-09-20T09:32:01.353Z,67.657471
2018-09-20T09:33:01.514Z,67.657471
2018-09-20T09:34:01.577Z,67.657471
2018-09-20T09:35:01.673Z,68.493652
2018-09-20T09:36:01.954Z,68.994141
2018-09-20T09:37:01.839Z,67.694092
2018-09-20T09:38:01.900Z,67.163086
2018-09-20T09:39:01.862Z,66.85791
2018-09-20T09:40:01.975Z,67.260742
2018-09-20T09:41:02.073Z,67.193604
2018-09-20T09:42:02.210Z,65.960693
2018-09-20T09:43:02.419Z,65.362549
2018-09-20T09:44:02.377Z,65.563965
2018-09-20T09:45:02.533Z,65.863037
2018-09-20T09:46:02.559Z,65.72876
2018-09-20T09:47:02.715Z,65.429688
2018-09-20T09:48:02.857Z,65.429688
2018-09-20T09:49:02.959Z,65.332031
2018-09-20T09:50:03.097Z,64.831543
2018-09-20T09:51:03.170Z,63.830566
2018-09-20T09:52:03.174Z,64.727783
2018-09-20T09:53:03.230Z,64.532471
2018-09-20T09:54:03.301Z,64.501953
2018-09-20T09:55:03.395Z,64.599609
2018-09-20T09:56:03.341Z,64.099121
2018-09-20T09:57:03.415Z,63.903809
2018-09-20T09:58:03.532Z,64.202881
2018-09-20T09:59:03.685Z,64.300537
2018-09-20T10:00:03.660Z,64.599609
2018-09-20T10:01:03.699Z,64.666748
2018-09-20T10:02:03.830Z,64.770508
2018-09-20T10:03:03.965Z,63.800049
2018-09-20T10:04:04.147Z,63.62915
2018-09-20T10:05:04.054Z,64.727783
2018-09-20T10:06:04.182Z,65.527344
2018-09-20T10:07:04.322Z,65.631104
2018-09-20T10:08:04.452Z,65.197754
2018-09-20T10:09:04.469Z,64.697266
2018-09-20T10:10:04.463Z,64.898682
2018-09-20T10:11:04.608Z,65.496826
2018-09-20T10:12:04.819Z,65.332031
2018-09-20T10:13:04.796Z,66.131592
2018-09-20T10:14:04.965Z,64.801025
2018-09-20T10:15:04.950Z,64.398193
2018-09-20T10:16:04.974Z,64.770508
2018-09-20T10:17:05.090Z,63.873291
2018-09-20T10:18:05.209Z,63.903809
2018-09-20T10:19:05.331Z,63.702393
2018-09-20T10:20:05.549Z,64.001465
2018-09-20T10:21:05.453Z,64.398193
2018-09-20T10:22:05.577Z,64.233398
2018-09-20T10:23:05.728Z,64.001465
2018-09-20T10:24:05.963Z,63.769531
2018-09-20T10:25:06.908Z,63.769531
2018-09-20T10:26:05.909Z,63.470459
2018-09-20T10:27:06.047Z,63.641357
2018-09-20T10:28:06.121Z,62.969971
2018-09-20T10:29:06.118Z,63.439941
2018-09-20T10:30:06.161Z,62.445068
2018-09-20T10:31:06.149Z,62.841797
2018-09-20T10:32:06.176Z,62.542725
2018-09-20T10:33:06.216Z,61.94458
2018-09-20T10:34:06.349Z,62.243652
2018-09-20T10:35:06.419Z,62.341309
2018-09-20T10:36:06.461Z,61.517334
2018-09-20T10:37:06.596Z,61.016846
2018-09-20T10:38:06.713Z,58.825684
2018-09-20T10:39:06.662Z,58.526611
2018-09-20T10:40:06.796Z,59.124756
2018-09-20T10:41:06.848Z,58.92334
2018-09-20T10:42:06.856Z,59.124756
2018-09-20T10:43:06.883Z,58.752441
2018-09-20T10:44:06.922Z,59.552002
2018-09-20T10:45:07.028Z,59.222412
2018-09-20T10:46:07.040Z,58.624268
2018-09-20T10:47:07.118Z,57.800293
2018-09-20T10:48:07.253Z,57.629395
2018-09-20T10:49:07.510Z,57.824707
2018-09-20T10:50:07.522Z,58.227539
2018-09-20T10:51:07.562Z,57.928467
2018-09-20T10:52:07.549Z,58.227539
2018-09-20T10:53:08.737Z,58.197021
2018-09-20T10:54:07.819Z,58.294678
2018-09-20T10:55:07.922Z,59.191895
2018-09-20T10:56:07.941Z,59.094238
2018-09-20T10:57:07.964Z,58.496094
2018-09-20T10:58:08.020Z,58.892822
2018-09-20T10:59:08.010Z,58.294678
2018-09-20T11:00:08.057Z,58.996582
2018-09-20T11:01:08.142Z,59.863281
2018-09-20T11:02:08.329Z,59.594727
2018-09-20T11:03:08.466Z,59.490967
2018-09-20T11:04:08.372Z,59.564209
2018-09-20T11:05:08.596Z,59.863281
2018-09-20T11:06:08.447Z,60.162354
2018-09-20T11:07:08.432Z,59.765625
2018-09-20T11:08:08.464Z,59.735107
2018-09-20T11:09:08.517Z,59.533691
2018-09-20T11:10:09.327Z,59.436035
2018-09-20T11:11:08.728Z,59.307861
2018-09-20T11:12:08.677Z,59.136963
2018-09-20T11:13:08.608Z,59.039307
2018-09-20T11:14:08.627Z,59.234619
2018-09-20T11:15:08.778Z,58.740234
2018-09-20T11:16:08.838Z,58.239746
2018-09-20T11:17:08.879Z,59.338379
2018-09-20T11:18:08.945Z,59.533691
2018-09-20T11:19:09.021Z,58.740234
2018-09-20T11:20:08.940Z,58.642578
2018-09-20T11:21:08.971Z,58.514404
2018-09-20T11:22:09.052Z,58.343506
2018-09-20T11:23:09.069Z,58.837891
2018-09-20T11:24:09.179Z,58.709717
2018-09-20T11:25:09.274Z,58.013916
2018-09-20T11:26:09.433Z,58.740234
2018-09-20T11:27:09.668Z,58.911133
2018-09-20T11:28:09.640Z,58.410645
2018-09-20T11:29:09.750Z,58.813477
2018-09-20T11:30:09.889Z,59.405518
2018-09-20T11:31:09.881Z,59.436035
2018-09-20T11:32:10.017Z,59.136963
2018-09-20T11:33:10.023Z,59.008789
2018-09-20T11:34:10.168Z,59.082031
2018-09-20T11:35:10.173Z,58.111572
2018-09-20T11:36:10.279Z,58.813477
2018-09-20T11:37:10.424Z,58.911133
2018-09-20T11:38:10.682Z,58.38623
2018-09-20T11:39:10.462Z,58.215332